createdAt,value
2023-03-29T00:01:48.289Z,100506.34
2023-03-29T00:11:52.932Z,100509.66
2023-03-29T00:21:55.853Z,100512.31
2023-03-29T00:32:00.927Z,100519.75
2023-03-29T00:42:04.725Z,100523.72
2023-03-29T00:52:09.226Z,100528.97
2023-03-29T01:02:14.290Z,100536.53
2023-03-29T01:12:26.007Z,100540.97
2023-03-29T01:22:39.263Z,100541.06
2023-03-29T01:32:50.723Z,100540.84
2023-03-29T01:43:00.991Z,100538.94
2023-03-29T01:53:10.717Z,100534.69
2023-03-29T02:03:17.814Z,100535.97
2023-03-29T02:13:22.586Z,100537.81
2023-03-29T02:23:34.527Z,100540.09
2023-03-29T02:33:43.461Z,100540.72
2023-03-29T02:43:48.672Z,100546.31
2023-03-29T02:54:44.165Z,100547.81
2023-03-29T03:04:50.993Z,100548.06
2023-03-29T03:15:00.572Z,100547.28
2023-03-29T03:25:04.434Z,100547.31
2023-03-29T03:35:10.338Z,100543.88
2023-03-29T03:45:13.589Z,100547.31
2023-03-29T03:55:26.145Z,100542.41
2023-03-29T04:05:29.645Z,100546.69
2023-03-29T04:15:38.986Z,100543.94
2023-03-29T04:25:44.455Z,100540.38
2023-03-29T04:35:53.956Z,100544.34
2023-03-29T04:45:58.048Z,100550.19
2023-03-29T04:56:03.927Z,100551.28
2023-03-29T05:06:09.061Z,100555.38
2023-03-29T05:16:13.654Z,100561.38
2023-03-29T05:26:16.687Z,100568.28
2023-03-29T05:36:21.975Z,100572.13
2023-03-29T05:46:25.071Z,100576.53
2023-03-29T05:56:30.009Z,100579.13
2023-03-29T06:06:33.206Z,100577.13
2023-03-29T06:16:39.092Z,100576.22
2023-03-29T06:26:43.614Z,100572.34
2023-03-29T06:36:48.368Z,100575.84
2023-03-29T06:46:54.527Z,100580.56
2023-03-29T06:57:00.237Z,100580.50
2023-03-29T07:07:04.437Z,100575.84
2023-03-29T07:17:12.764Z,100575.81
2023-03-29T07:27:27.247Z,100571.75
2023-03-29T07:37:48.805Z,100572.22
2023-03-29T07:48:18.042Z,100576.84
2023-03-29T07:58:30.135Z,100570.56
2023-03-29T08:08:33.540Z,100572.41
2023-03-29T08:18:40.354Z,100574.06
2023-03-29T08:28:44.596Z,100565.56
2023-03-29T08:38:50.901Z,100563.88
2023-03-29T08:50:03.103Z,100569.41
2023-03-29T09:15:55.883Z,100577.28
2023-03-29T09:24:01.206Z,100576.97
2023-03-29T09:34:15.761Z,100577.59
2023-03-29T09:44:31.130Z,100574.41
2023-03-29T09:54:35.391Z,100573.16
2023-03-29T10:04:42.239Z,100571.31
2023-03-29T10:14:48.643Z,100575.72
2023-03-29T10:24:56.119Z,100576.16
2023-03-29T10:35:09.899Z,100577.13
2023-03-29T10:45:29.241Z,100579.59
2023-03-29T10:55:37.866Z,100580.34
2023-03-29T11:05:49.643Z,100572.69
2023-03-29T11:16:05.039Z,100560.28
2023-03-29T11:26:18.704Z,100554.53
2023-03-29T11:36:32.234Z,100549.75
2023-03-29T11:46:40.426Z,100542.06
2023-03-29T11:56:47.718Z,100533.25
2023-03-29T12:07:02.069Z,100532.03
2023-03-29T12:17:11.940Z,100518.47
2023-03-29T12:27:27.366Z,100511.19
2023-03-29T12:37:43.887Z,100509.22
2023-03-29T12:47:51.938Z,100496.97
2023-03-29T12:58:03.841Z,100493.34
2023-03-29T13:08:26.778Z,100485.06
2023-03-29T13:18:40.260Z,100482.75
2023-03-29T13:29:03.965Z,100479.38
2023-03-29T13:39:14.082Z,100468.31
2023-03-29T13:49:23.804Z,100465.41
2023-03-29T13:59:33.982Z,100454.13
2023-03-29T14:09:46.309Z,100454.78
2023-03-29T14:19:49.697Z,100452.88
2023-03-29T14:29:53.976Z,100451.91
2023-03-29T14:39:59.347Z,100452.88
2023-03-29T14:50:04.829Z,100451.09
2023-03-29T15:00:22.884Z,100450.41
2023-03-29T15:10:27.479Z,100450.56
2023-03-29T15:20:34.153Z,100450.00
2023-03-29T15:30:46.188Z,100450.97
2023-03-29T15:40:52.415Z,100451.22
2023-03-29T15:50:59.255Z,100449.88
2023-03-29T16:01:12.322Z,100448.94
2023-03-29T16:11:17.050Z,100447.78
2023-03-29T16:21:22.561Z,100447.03
2023-03-29T16:31:27.400Z,100445.47
2023-03-29T16:41:30.292Z,100443.44
2023-03-29T16:51:34.630Z,100441.19
2023-03-29T17:01:37.718Z,100438.88
2023-03-29T17:11:42.567Z,100438.59
2023-03-29T17:21:46.172Z,100439.22
2023-03-29T17:31:51.161Z,100438.28
2023-03-29T17:41:54.183Z,100434.66
2023-03-29T17:51:58.476Z,100433.50
2023-03-29T18:02:03.901Z,100433.47
2023-03-29T18:12:08.645Z,100433.56
2023-03-29T18:22:12.720Z,100433.06
2023-03-29T18:32:17.682Z,100433.75
2023-03-29T18:42:22.226Z,100429.28
2023-03-29T18:52:28.791Z,100426.19
2023-03-29T19:02:31.824Z,100422.41
2023-03-29T19:12:36.340Z,100420.50
2023-03-29T19:22:39.826Z,100418.47
2023-03-29T19:32:47.916Z,100416.31
2023-03-29T19:42:50.811Z,100413.66
2023-03-29T19:52:57.160Z,100405.00
2023-03-29T20:03:00.269Z,100397.69
2023-03-29T20:13:06.847Z,100392.41
2023-03-29T20:23:11.392Z,100388.09
2023-03-29T20:33:17.546Z,100374.56
2023-03-29T20:43:20.922Z,100369.88
2023-03-29T20:53:30.364Z,100356.47
2023-03-29T21:03:34.976Z,100354.94
2023-03-29T21:13:42.237Z,100355.09
2023-03-29T21:23:48.749Z,100354.19
2023-03-29T21:34:15.582Z,100353.41
2023-03-29T21:44:18.624Z,100348.56
2023-03-29T21:54:26.375Z,100341.09
2023-03-29T22:04:37.179Z,100341.19
2023-03-29T22:14:44.889Z,100333.34
2023-03-29T22:24:47.900Z,100327.34
2023-03-29T22:34:52.394Z,100322.91
2023-03-29T22:44:55.286Z,100322.69
2023-03-29T22:54:59.882Z,100320.81
2023-03-29T23:05:03.720Z,100320.63
2023-03-29T23:15:22.345Z,100315.25
2023-03-29T23:25:26.433Z,100307.72
2023-03-29T23:35:59.204Z,100298.75
2023-03-29T23:56:31.316Z,100291.66
